• Join FlightAware (Why Join?)
  • Login
  • US Flag 
12:57AM EDT


 

Airport Tracker/Info


-or-


 

Live Flight TrackerFlight Track Log ✈ MTN8308 ✈ 10-May-2013 ✈ KEWR - KBWI

Flight Track Log - Related Links

Times and Time Zones

All times are in EDT time to prevent confusion due to time zone crossing. See the MTN8308 flight status page for this flight to view local times or setup timezone preferences in your user account.

Time Position Orientation Groundspeed Altitude Reporting Facility
EDT Latitude Longitude Course Direction KTS MPH feet Rate Location/Type
03:20AM 40.6667 -74.2000 270° West 103 119 800  Level New York TRACON
03:21AM 40.6667 -74.2333 270° West 107 123 1,400 660 Climbing New York TRACON
03:22AM 40.6667 -74.2667 270° West 113 130 2,200 720 Climbing New York TRACON
03:23AM 40.6500 -74.3167 246° West 115 132 2,900 660 Climbing New York TRACON
03:24AM 40.6500 -74.3500 270° West 116 133 3,600 480 Climbing New York TRACON
03:25AM 40.6333 -74.4000 246° West 129 148 4,000 180 Climbing New York TRACON
03:26AM 40.6333 -74.4500 270° West 149 171 4,000  Level New York TRACON
03:27AM 40.6167 -74.5167 252° West 151 174 4,000  Level New York TRACON
03:28AM 40.6167 -74.5667 270° West 149 171 4,000  Level New York TRACON
03:29AM 40.6000 -74.6167 246° West 152 175 4,000  Level New York TRACON
03:30AM 40.5667 -74.6500 217° Southwest 158 182 4,000  Level New York TRACON
03:31AM 40.5333 -74.7000 229° Southwest 157 181 4,000  Level New York TRACON
03:32AM 40.5167 -74.7333 237° Southwest 157 181 4,000  Level New York TRACON
03:34AM 40.4667 -74.8167 232° Southwest 154 177 4,000  Level Philadelphia TRACON
03:35AM 40.4333 -74.8667 229° Southwest 153 176 4,000  Level Philadelphia TRACON
03:36AM 40.4000 -74.9000 217° Southwest 153 176 4,000 -60 Level Philadelphia TRACON
03:37AM 40.3833 -74.9500 246° West 159 183 3,900 -60 Descending Philadelphia TRACON
03:38AM 40.3500 -74.9833 217° Southwest 155 178 3,900  Level Philadelphia TRACON
03:39AM 40.3167 -75.0333 229° Southwest 154 177 3,900  Level Philadelphia TRACON
03:40AM 40.2833 -75.0667 217° Southwest 154 177 3,900  Level Philadelphia TRACON
03:41AM 40.2667 -75.1167 246° West 153 176 3,900  Level Philadelphia TRACON
03:42AM 40.2333 -75.1667 229° Southwest 155 178 3,900  Level Philadelphia TRACON
03:43AM 40.2000 -75.2000 217° Southwest 156 180 3,900  Level Philadelphia TRACON
03:44AM 40.1667 -75.2500 229° Southwest 154 177 3,900  Level Philadelphia TRACON
03:45AM 40.1500 -75.2833 237° Southwest 156 180 3,900  Level Philadelphia TRACON
03:46AM 40.1167 -75.3333 229° Southwest 154 177 3,900  Level Philadelphia TRACON
03:47AM 40.0833 -75.3667 217° Southwest 154 177 3,900  Level Philadelphia TRACON
03:48AM 40.0667 -75.4167 246° West 155 178 3,900  Level Philadelphia TRACON
03:49AM 40.0333 -75.4500 217° Southwest 155 178 3,900  Level Philadelphia TRACON
03:50AM 40.0000 -75.4833 217° Southwest 153 176 4,000  Climbing Philadelphia TRACON
03:51AM 39.9833 -75.5333 247° West 153 176 3,900 -60 Descending Philadelphia TRACON
03:52AM 39.9500 -75.5667 217° Southwest 153 176 3,900  Level Philadelphia TRACON
03:53AM 39.9167 -75.6167 229° Southwest 153 176 3,900  Level Philadelphia TRACON
03:54AM 39.8833 -75.6500 218° Southwest 152 175 3,900  Level Philadelphia TRACON
03:55AM 39.8667 -75.7000 247° West 153 176 3,900  Level Philadelphia TRACON
03:57AM 39.7833 -75.8000 223° Southwest 154 177 4,000  Climbing Potomac TRACON
03:58AM 39.7667 -75.8333 237° Southwest 149 171 4,000  Level Potomac TRACON
03:59AM 39.7333 -75.8833 229° Southwest 146 168 4,000  Level Potomac TRACON
04:00AM 39.7000 -75.9167 218° Southwest 146 168 4,000  Level Potomac TRACON
04:01AM 39.6833 -75.9500 237° Southwest 148 170 4,000  Level Potomac TRACON
04:02AM 39.6500 -76.0000 229° Southwest 149 171 4,000  Level Potomac TRACON
04:03AM 39.6167 -76.0333 218° Southwest 147 169 4,000  Level Potomac TRACON
04:04AM 39.6000 -76.0667 237° Southwest 146 168 4,000  Level Potomac TRACON
04:05AM 39.5667 -76.1000 218° Southwest 144 166 4,000  Level Potomac TRACON
04:06AM 39.5500 -76.1500 247° West 146 168 4,000  Level Potomac TRACON
04:07AM 39.5167 -76.1833 218° Southwest 145 167 4,000  Level Potomac TRACON
04:08AM 39.5000 -76.2167 237° Southwest 145 167 4,000  Level Potomac TRACON
04:09AM 39.4667 -76.2500 218° Southwest 145 167 4,000  Level Potomac TRACON
04:10AM 39.4333 -76.3000 229° Southwest 145 167 4,000 -120 Level Potomac TRACON
04:11AM 39.4167 -76.3333 237° Southwest 152 175 3,800 -300 Descending Potomac TRACON
04:12AM 39.3833 -76.3833 229° Southwest 160 184 3,400 -360 Descending Potomac TRACON
04:13AM 39.3500 -76.4167 218° Southwest 165 190 3,100 -240 Descending Potomac TRACON
04:14AM 39.3167 -76.4667 229° Southwest 159 183 3,000 -120 Descending Potomac TRACON
04:15AM 39.3000 -76.5000 237° Southwest 158 182 2,900 -180 Descending Potomac TRACON
04:16AM 39.2667 -76.5500 229° Southwest 163 188 2,700 -300 Descending Potomac TRACON
04:17AM 39.2333 -76.5833 218° Southwest 166 191 2,400 -480 Descending Potomac TRACON
04:18AM 39.2000 -76.6167 218° Southwest 171 197 1,800 -900 Descending Potomac TRACON
04:19AM 39.1667 -76.6500 218° Southwest 149 171 600 -1,200 Descending Potomac TRACON
04:21AM 39.1667 -76.6667 232° Southwest  Level FlightAware Approximate
04:28AM 39.1754 -76.6683 232° Southwest  Level Estimated
04:29AM 39.1754 -76.6683 232° Southwest  Level Estimated
04:30AM 39.1754 -76.6683 232° Southwest  Level Estimated